sensor_id;sensor_type;location;lat;lon;timestamp;P1;durP1;ratioP1;P2;durP2;ratioP2
29246;SDS011;16272;48.188;9.964;2022-11-03T00:01:49;8.75;;;3.00;;
29246;SDS011;16272;48.188;9.964;2022-11-03T00:04:15;9.80;;;3.10;;
29246;SDS011;16272;48.188;9.964;2022-11-03T00:06:42;10.02;;;2.70;;
29246;SDS011;16272;48.188;9.964;2022-11-03T00:09:11;8.35;;;2.80;;
29246;SDS011;16272;48.188;9.964;2022-11-03T00:11:38;8.75;;;2.67;;
29246;SDS011;16272;48.188;9.964;2022-11-03T00:14:05;9.37;;;3.00;;
29246;SDS011;16272;48.188;9.964;2022-11-03T00:16:31;10.52;;;2.80;;
29246;SDS011;16272;48.188;9.964;2022-11-03T00:18:57;8.52;;;2.85;;
29246;SDS011;16272;48.188;9.964;2022-11-03T00:21:22;8.60;;;2.73;;
29246;SDS011;16272;48.188;9.964;2022-11-03T00:23:48;7.97;;;2.88;;
29246;SDS011;16272;48.188;9.964;2022-11-03T00:26:18;10.27;;;2.57;;
29246;SDS011;16272;48.188;9.964;2022-11-03T00:28:48;8.82;;;2.92;;
29246;SDS011;16272;48.188;9.964;2022-11-03T00:31:18;7.95;;;2.30;;
29246;SDS011;16272;48.188;9.964;2022-11-03T00:33:46;9.38;;;2.70;;
29246;SDS011;16272;48.188;9.964;2022-11-03T00:36:15;8.93;;;2.67;;
29246;SDS011;16272;48.188;9.964;2022-11-03T00:38:43;6.88;;;2.40;;
29246;SDS011;16272;48.188;9.964;2022-11-03T00:41:09;7.78;;;2.60;;
29246;SDS011;16272;48.188;9.964;2022-11-03T00:43:35;7.93;;;2.80;;
29246;SDS011;16272;48.188;9.964;2022-11-03T00:46:01;11.87;;;2.97;;
29246;SDS011;16272;48.188;9.964;2022-11-03T00:48:27;9.93;;;3.03;;
29246;SDS011;16272;48.188;9.964;2022-11-03T00:51:03;8.38;;;2.80;;
29246;SDS011;16272;48.188;9.964;2022-11-03T00:53:32;10.80;;;3.20;;
29246;SDS011;16272;48.188;9.964;2022-11-03T00:55:59;9.43;;;3.08;;
29246;SDS011;16272;48.188;9.964;2022-11-03T00:58:24;9.35;;;2.90;;
29246;SDS011;16272;48.188;9.964;2022-11-03T01:00:50;9.07;;;2.87;;
29246;SDS011;16272;48.188;9.964;2022-11-03T01:03:21;8.82;;;2.95;;
29246;SDS011;16272;48.188;9.964;2022-11-03T01:05:47;10.50;;;3.10;;
29246;SDS011;16272;48.188;9.964;2022-11-03T01:08:31;10.43;;;2.97;;
29246;SDS011;16272;48.188;9.964;2022-11-03T01:14:08;10.02;;;3.20;;
29246;SDS011;16272;48.188;9.964;2022-11-03T01:16:35;9.95;;;2.90;;
29246;SDS011;16272;48.188;9.964;2022-11-03T01:19:01;9.67;;;3.43;;
29246;SDS011;16272;48.188;9.964;2022-11-03T01:21:26;9.25;;;3.10;;
29246;SDS011;16272;48.188;9.964;2022-11-03T01:23:52;8.17;;;3.07;;
29246;SDS011;16272;48.188;9.964;2022-11-03T01:26:17;8.63;;;2.83;;
29246;SDS011;16272;48.188;9.964;2022-11-03T01:28:43;9.33;;;3.10;;
29246;SDS011;16272;48.188;9.964;2022-11-03T01:31:15;8.50;;;3.00;;
29246;SDS011;16272;48.188;9.964;2022-11-03T01:33:42;8.80;;;3.35;;
29246;SDS011;16272;48.188;9.964;2022-11-03T01:36:09;11.63;;;3.55;;
29246;SDS011;16272;48.188;9.964;2022-11-03T01:38:36;11.25;;;3.30;;
29246;SDS011;16272;48.188;9.964;2022-11-03T01:41:03;14.67;;;3.63;;
29246;SDS011;16272;48.188;9.964;2022-11-03T01:43:29;10.52;;;3.67;;
29246;SDS011;16272;48.188;9.964;2022-11-03T01:46:08;11.63;;;3.17;;
29246;SDS011;16272;48.188;9.964;2022-11-03T01:48:55;9.73;;;3.17;;
29246;SDS011;16272;48.188;9.964;2022-11-03T01:51:34;10.48;;;3.40;;
29246;SDS011;16272;48.188;9.964;2022-11-03T01:54:03;9.83;;;3.43;;
29246;SDS011;16272;48.188;9.964;2022-11-03T01:56:33;9.82;;;3.38;;
29246;SDS011;16272;48.188;9.964;2022-11-03T01:59:02;10.23;;;3.65;;
29246;SDS011;16272;48.188;9.964;2022-11-03T02:01:29;11.68;;;3.60;;
29246;SDS011;16272;48.188;9.964;2022-11-03T02:03:57;12.98;;;4.05;;
29246;SDS011;16272;48.188;9.964;2022-11-03T02:06:26;15.50;;;4.20;;
29246;SDS011;16272;48.188;9.964;2022-11-03T02:08:57;12.35;;;3.88;;
29246;SDS011;16272;48.188;9.964;2022-11-03T02:11:26;11.27;;;4.07;;
29246;SDS011;16272;48.188;9.964;2022-11-03T02:14:11;12.40;;;4.07;;
29246;SDS011;16272;48.188;9.964;2022-11-03T02:16:37;14.50;;;3.60;;
29246;SDS011;16272;48.188;9.964;2022-11-03T02:19:05;11.70;;;3.90;;
29246;SDS011;16272;48.188;9.964;2022-11-03T02:21:45;12.63;;;4.10;;
29246;SDS011;16272;48.188;9.964;2022-11-03T02:27:01;13.07;;;4.15;;
29246;SDS011;16272;48.188;9.964;2022-11-03T02:29:26;14.67;;;4.33;;
29246;SDS011;16272;48.188;9.964;2022-11-03T02:31:55;12.43;;;4.37;;
29246;SDS011;16272;48.188;9.964;2022-11-03T02:34:38;16.63;;;4.70;;
29246;SDS011;16272;48.188;9.964;2022-11-03T02:37:12;14.38;;;4.10;;
29246;SDS011;16272;48.188;9.964;2022-11-03T02:39:49;15.48;;;4.90;;
29246;SDS011;16272;48.188;9.964;2022-11-03T02:42:19;13.53;;;4.13;;
29246;SDS011;16272;48.188;9.964;2022-11-03T02:44:47;15.55;;;4.50;;
29246;SDS011;16272;48.188;9.964;2022-11-03T02:47:13;12.75;;;4.40;;
29246;SDS011;16272;48.188;9.964;2022-11-03T02:49:46;14.13;;;4.78;;
29246;SDS011;16272;48.188;9.964;2022-11-03T02:52:33;16.88;;;4.95;;
29246;SDS011;16272;48.188;9.964;2022-11-03T02:55:09;13.43;;;4.70;;
29246;SDS011;16272;48.188;9.964;2022-11-03T02:57:49;13.63;;;4.53;;
29246;SDS011;16272;48.188;9.964;2022-11-03T03:00:22;14.27;;;5.07;;
29246;SDS011;16272;48.188;9.964;2022-11-03T03:02:53;13.70;;;4.83;;
29246;SDS011;16272;48.188;9.964;2022-11-03T03:05:26;13.32;;;4.45;;
29246;SDS011;16272;48.188;9.964;2022-11-03T03:07:56;14.73;;;4.90;;
29246;SDS011;16272;48.188;9.964;2022-11-03T03:10:28;16.83;;;5.20;;
29246;SDS011;16272;48.188;9.964;2022-11-03T03:12:58;11.83;;;4.73;;
29246;SDS011;16272;48.188;9.964;2022-11-03T03:15:29;16.20;;;5.40;;
29246;SDS011;16272;48.188;9.964;2022-11-03T03:18:26;13.80;;;5.03;;
29246;SDS011;16272;48.188;9.964;2022-11-03T03:21:10;16.23;;;5.20;;
29246;SDS011;16272;48.188;9.964;2022-11-03T03:23:44;12.43;;;4.55;;
29246;SDS011;16272;48.188;9.964;2022-11-03T03:26:25;20.50;;;5.47;;
29246;SDS011;16272;48.188;9.964;2022-11-03T03:28:58;12.23;;;4.57;;
29246;SDS011;16272;48.188;9.964;2022-11-03T03:31:29;13.80;;;5.15;;
29246;SDS011;16272;48.188;9.964;2022-11-03T03:33:59;13.77;;;4.47;;
29246;SDS011;16272;48.188;9.964;2022-11-03T03:36:25;13.48;;;4.82;;
29246;SDS011;16272;48.188;9.964;2022-11-03T03:38:54;18.27;;;5.20;;
29246;SDS011;16272;48.188;9.964;2022-11-03T03:41:24;17.15;;;5.00;;
29246;SDS011;16272;48.188;9.964;2022-11-03T03:43:54;13.63;;;4.95;;
29246;SDS011;16272;48.188;9.964;2022-11-03T03:46:24;19.25;;;4.90;;
29246;SDS011;16272;48.188;9.964;2022-11-03T03:48:58;18.35;;;4.78;;
29246;SDS011;16272;48.188;9.964;2022-11-03T03:51:25;19.00;;;5.10;;
29246;SDS011;16272;48.188;9.964;2022-11-03T03:53:53;14.40;;;5.00;;
29246;SDS011;16272;48.188;9.964;2022-11-03T03:56:20;12.60;;;4.63;;
29246;SDS011;16272;48.188;9.964;2022-11-03T04:01:20;16.27;;;4.40;;
29246;SDS011;16272;48.188;9.964;2022-11-03T04:03:45;14.70;;;4.50;;
29246;SDS011;16272;48.188;9.964;2022-11-03T04:06:11;12.13;;;4.67;;
29246;SDS011;16272;48.188;9.964;2022-11-03T04:08:36;14.97;;;4.57;;
29246;SDS011;16272;48.188;9.964;2022-11-03T04:11:01;14.43;;;4.57;;
29246;SDS011;16272;48.188;9.964;2022-11-03T04:13:45;17.58;;;4.13;;
29246;SDS011;16272;48.188;9.964;2022-11-03T04:16:29;12.13;;;3.95;;
29246;SDS011;16272;48.188;9.964;2022-11-03T04:19:13;13.60;;;4.07;;
29246;SDS011;16272;48.188;9.964;2022-11-03T04:21:57;11.27;;;4.28;;
29246;SDS011;16272;48.188;9.964;2022-11-03T04:24:40;14.53;;;4.13;;
29246;SDS011;16272;48.188;9.964;2022-11-03T04:27:48;12.40;;;3.70;;
29246;SDS011;16272;48.188;9.964;2022-11-03T04:30:09;19.58;;;4.13;;
29246;SDS011;16272;48.188;9.964;2022-11-03T04:32:40;10.18;;;3.92;;
29246;SDS011;16272;48.188;9.964;2022-11-03T04:35:12;11.10;;;3.90;;
29246;SDS011;16272;48.188;9.964;2022-11-03T04:37:47;17.13;;;3.95;;
29246;SDS011;16272;48.188;9.964;2022-11-03T04:40:18;17.83;;;3.95;;
29246;SDS011;16272;48.188;9.964;2022-11-03T04:42:43;12.83;;;3.90;;
29246;SDS011;16272;48.188;9.964;2022-11-03T04:47:43;10.13;;;4.13;;
29246;SDS011;16272;48.188;9.964;2022-11-03T04:50:18;11.95;;;3.78;;
29246;SDS011;16272;48.188;9.964;2022-11-03T04:52:46;9.20;;;3.50;;
29246;SDS011;16272;48.188;9.964;2022-11-03T04:55:13;13.70;;;4.18;;
29246;SDS011;16272;48.188;9.964;2022-11-03T04:57:42;12.70;;;4.35;;
29246;SDS011;16272;48.188;9.964;2022-11-03T05:00:12;19.65;;;4.32;;
29246;SDS011;16272;48.188;9.964;2022-11-03T05:02:39;11.98;;;4.25;;
29246;SDS011;16272;48.188;9.964;2022-11-03T05:05:13;10.60;;;4.37;;
29246;SDS011;16272;48.188;9.964;2022-11-03T05:07:41;10.48;;;3.90;;
29246;SDS011;16272;48.188;9.964;2022-11-03T05:10:09;15.38;;;4.07;;
29246;SDS011;16272;48.188;9.964;2022-11-03T05:12:39;14.57;;;3.90;;
29246;SDS011;16272;48.188;9.964;2022-11-03T05:15:13;9.82;;;3.55;;
29246;SDS011;16272;48.188;9.964;2022-11-03T05:17:52;9.68;;;3.50;;
29246;SDS011;16272;48.188;9.964;2022-11-03T05:20:29;11.00;;;3.73;;
29246;SDS011;16272;48.188;9.964;2022-11-03T05:22:54;9.27;;;4.00;;
29246;SDS011;16272;48.188;9.964;2022-11-03T05:25:41;12.63;;;3.70;;
29246;SDS011;16272;48.188;9.964;2022-11-03T05:28:12;11.48;;;3.92;;
29246;SDS011;16272;48.188;9.964;2022-11-03T05:30:43;13.17;;;3.73;;
29246;SDS011;16272;48.188;9.964;2022-11-03T05:35:47;11.77;;;4.05;;
29246;SDS011;16272;48.188;9.964;2022-11-03T05:38:13;21.98;;;4.47;;
29246;SDS011;16272;48.188;9.964;2022-11-03T05:40:40;12.43;;;4.15;;
29246;SDS011;16272;48.188;9.964;2022-11-03T05:43:07;21.47;;;4.20;;
29246;SDS011;16272;48.188;9.964;2022-11-03T05:45:36;27.20;;;4.72;;
29246;SDS011;16272;48.188;9.964;2022-11-03T05:48:02;18.80;;;4.17;;
29246;SDS011;16272;48.188;9.964;2022-11-03T05:50:50;21.02;;;4.18;;
29246;SDS011;16272;48.188;9.964;2022-11-03T05:53:36;31.40;;;4.93;;
29246;SDS011;16272;48.188;9.964;2022-11-03T05:56:03;20.98;;;4.30;;
29246;SDS011;16272;48.188;9.964;2022-11-03T05:58:39;17.50;;;4.27;;
29246;SDS011;16272;48.188;9.964;2022-11-03T06:03:42;26.58;;;4.30;;
29246;SDS011;16272;48.188;9.964;2022-11-03T06:06:14;22.77;;;4.05;;
29246;SDS011;16272;48.188;9.964;2022-11-03T06:08:43;12.65;;;4.28;;
29246;SDS011;16272;48.188;9.964;2022-11-03T06:11:08;42.20;;;4.90;;
29246;SDS011;16272;48.188;9.964;2022-11-03T06:13:43;24.10;;;4.18;;
29246;SDS011;16272;48.188;9.964;2022-11-03T06:18:37;16.15;;;3.95;;
29246;SDS011;16272;48.188;9.964;2022-11-03T06:21:06;21.73;;;4.07;;
29246;SDS011;16272;48.188;9.964;2022-11-03T06:23:44;21.98;;;4.30;;
29246;SDS011;16272;48.188;9.964;2022-11-03T06:26:20;14.70;;;4.20;;
29246;SDS011;16272;48.188;9.964;2022-11-03T06:28:49;11.85;;;3.88;;
29246;SDS011;16272;48.188;9.964;2022-11-03T06:31:18;21.60;;;4.15;;
29246;SDS011;16272;48.188;9.964;2022-11-03T06:33:58;15.05;;;4.10;;
29246;SDS011;16272;48.188;9.964;2022-11-03T06:36:26;14.77;;;4.78;;
29246;SDS011;16272;48.188;9.964;2022-11-03T06:39:03;10.30;;;3.57;;
29246;SDS011;16272;48.188;9.964;2022-11-03T06:41:39;13.90;;;3.90;;
29246;SDS011;16272;48.188;9.964;2022-11-03T06:44:18;14.47;;;4.13;;
29246;SDS011;16272;48.188;9.964;2022-11-03T06:46:55;15.05;;;4.30;;
29246;SDS011;16272;48.188;9.964;2022-11-03T06:49:26;15.85;;;4.13;;
29246;SDS011;16272;48.188;9.964;2022-11-03T06:51:54;15.18;;;3.92;;
29246;SDS011;16272;48.188;9.964;2022-11-03T06:54:21;15.35;;;4.22;;
29246;SDS011;16272;48.188;9.964;2022-11-03T06:56:46;15.50;;;4.13;;
29246;SDS011;16272;48.188;9.964;2022-11-03T06:59:12;12.37;;;4.20;;
29246;SDS011;16272;48.188;9.964;2022-11-03T07:01:39;14.27;;;4.38;;
29246;SDS011;16272;48.188;9.964;2022-11-03T07:04:11;13.10;;;4.20;;
29246;SDS011;16272;48.188;9.964;2022-11-03T07:06:46;13.13;;;4.13;;
29246;SDS011;16272;48.188;9.964;2022-11-03T07:09:21;19.55;;;4.18;;
29246;SDS011;16272;48.188;9.964;2022-11-03T07:11:52;18.65;;;4.30;;
29246;SDS011;16272;48.188;9.964;2022-11-03T07:14:21;22.53;;;4.33;;
29246;SDS011;16272;48.188;9.964;2022-11-03T07:16:58;13.60;;;3.92;;
29246;SDS011;16272;48.188;9.964;2022-11-03T07:19:31;14.70;;;3.88;;
29246;SDS011;16272;48.188;9.964;2022-11-03T07:22:02;11.68;;;3.88;;
29246;SDS011;16272;48.188;9.964;2022-11-03T07:24:33;11.13;;;4.30;;
29246;SDS011;16272;48.188;9.964;2022-11-03T07:29:45;25.45;;;5.13;;
29246;SDS011;16272;48.188;9.964;2022-11-03T07:32:19;12.75;;;4.40;;
29246;SDS011;16272;48.188;9.964;2022-11-03T07:34:59;13.55;;;4.22;;
29246;SDS011;16272;48.188;9.964;2022-11-03T07:37:28;13.77;;;4.63;;
29246;SDS011;16272;48.188;9.964;2022-11-03T07:39:55;13.73;;;4.60;;
29246;SDS011;16272;48.188;9.964;2022-11-03T07:42:23;17.33;;;4.60;;
29246;SDS011;16272;48.188;9.964;2022-11-03T07:44:50;20.73;;;4.43;;
29246;SDS011;16272;48.188;9.964;2022-11-03T07:47:20;18.63;;;4.13;;
29246;SDS011;16272;48.188;9.964;2022-11-03T07:49:49;15.23;;;4.20;;
29246;SDS011;16272;48.188;9.964;2022-11-03T07:52:15;11.90;;;4.35;;
29246;SDS011;16272;48.188;9.964;2022-11-03T07:54:45;19.67;;;4.55;;
29246;SDS011;16272;48.188;9.964;2022-11-03T07:57:14;13.90;;;4.17;;
29246;SDS011;16272;48.188;9.964;2022-11-03T07:59:45;20.27;;;4.57;;
29246;SDS011;16272;48.188;9.964;2022-11-03T08:04:55;17.27;;;4.57;;
29246;SDS011;16272;48.188;9.964;2022-11-03T08:07:20;37.40;;;4.70;;
29246;SDS011;16272;48.188;9.964;2022-11-03T08:09:46;19.47;;;3.93;;
29246;SDS011;16272;48.188;9.964;2022-11-03T08:12:11;18.10;;;4.17;;
29246;SDS011;16272;48.188;9.964;2022-11-03T08:14:36;21.37;;;4.23;;
29246;SDS011;16272;48.188;9.964;2022-11-03T08:17:02;15.40;;;4.20;;
29246;SDS011;16272;48.188;9.964;2022-11-03T08:19:28;18.38;;;4.25;;
29246;SDS011;16272;48.188;9.964;2022-11-03T08:21:54;17.13;;;4.30;;
29246;SDS011;16272;48.188;9.964;2022-11-03T08:24:20;15.07;;;4.37;;
29246;SDS011;16272;48.188;9.964;2022-11-03T08:26:53;18.73;;;4.50;;
29246;SDS011;16272;48.188;9.964;2022-11-03T08:29:18;14.15;;;4.05;;
29246;SDS011;16272;48.188;9.964;2022-11-03T08:31:45;12.68;;;5.00;;
29246;SDS011;16272;48.188;9.964;2022-11-03T08:34:10;11.93;;;4.60;;
29246;SDS011;16272;48.188;9.964;2022-11-03T08:36:36;13.30;;;4.63;;
29246;SDS011;16272;48.188;9.964;2022-11-03T08:39:03;14.90;;;5.03;;
29246;SDS011;16272;48.188;9.964;2022-11-03T08:41:29;11.70;;;4.55;;
29246;SDS011;16272;48.188;9.964;2022-11-03T08:43:55;13.87;;;5.07;;
29246;SDS011;16272;48.188;9.964;2022-11-03T08:46:20;23.50;;;5.38;;
29246;SDS011;16272;48.188;9.964;2022-11-03T08:48:45;15.00;;;5.17;;
29246;SDS011;16272;48.188;9.964;2022-11-03T08:51:11;14.97;;;5.23;;
29246;SDS011;16272;48.188;9.964;2022-11-03T08:53:37;11.27;;;4.97;;
29246;SDS011;16272;48.188;9.964;2022-11-03T08:56:03;13.85;;;4.78;;
29246;SDS011;16272;48.188;9.964;2022-11-03T08:58:29;16.07;;;5.30;;
29246;SDS011;16272;48.188;9.964;2022-11-03T09:00:55;16.05;;;4.80;;
29246;SDS011;16272;48.188;9.964;2022-11-03T09:03:21;13.20;;;5.43;;
29246;SDS011;16272;48.188;9.964;2022-11-03T09:05:46;15.57;;;5.67;;
29246;SDS011;16272;48.188;9.964;2022-11-03T09:08:11;13.23;;;4.87;;
29246;SDS011;16272;48.188;9.964;2022-11-03T09:10:37;14.07;;;5.03;;
29246;SDS011;16272;48.188;9.964;2022-11-03T09:13:02;15.73;;;5.33;;
29246;SDS011;16272;48.188;9.964;2022-11-03T09:15:27;12.90;;;4.50;;
29246;SDS011;16272;48.188;9.964;2022-11-03T09:17:53;14.47;;;4.60;;
29246;SDS011;16272;48.188;9.964;2022-11-03T09:20:18;10.77;;;4.40;;
29246;SDS011;16272;48.188;9.964;2022-11-03T09:22:46;11.68;;;4.72;;
29246;SDS011;16272;48.188;9.964;2022-11-03T09:25:11;11.73;;;4.70;;
29246;SDS011;16272;48.188;9.964;2022-11-03T09:27:36;10.57;;;4.40;;
29246;SDS011;16272;48.188;9.964;2022-11-03T09:30:02;12.30;;;4.53;;
29246;SDS011;16272;48.188;9.964;2022-11-03T09:32:28;13.02;;;5.57;;
29246;SDS011;16272;48.188;9.964;2022-11-03T09:34:54;12.65;;;5.43;;
29246;SDS011;16272;48.188;9.964;2022-11-03T09:37:19;12.30;;;5.10;;
29246;SDS011;16272;48.188;9.964;2022-11-03T09:39:46;12.85;;;5.55;;
29246;SDS011;16272;48.188;9.964;2022-11-03T09:42:12;14.23;;;5.67;;
29246;SDS011;16272;48.188;9.964;2022-11-03T09:44:37;13.57;;;5.57;;
29246;SDS011;16272;48.188;9.964;2022-11-03T09:47:03;13.83;;;5.73;;
29246;SDS011;16272;48.188;9.964;2022-11-03T09:49:29;12.45;;;5.47;;
29246;SDS011;16272;48.188;9.964;2022-11-03T09:51:56;12.27;;;5.30;;
29246;SDS011;16272;48.188;9.964;2022-11-03T09:54:22;13.60;;;5.40;;
29246;SDS011;16272;48.188;9.964;2022-11-03T09:56:47;14.05;;;5.82;;
29246;SDS011;16272;48.188;9.964;2022-11-03T09:59:14;12.30;;;5.53;;
29246;SDS011;16272;48.188;9.964;2022-11-03T10:01:41;11.73;;;5.38;;
29246;SDS011;16272;48.188;9.964;2022-11-03T10:04:09;12.23;;;5.47;;
29246;SDS011;16272;48.188;9.964;2022-11-03T10:06:36;12.87;;;5.57;;
29246;SDS011;16272;48.188;9.964;2022-11-03T10:09:02;13.48;;;5.72;;
29246;SDS011;16272;48.188;9.964;2022-11-03T10:11:28;14.68;;;6.03;;
29246;SDS011;16272;48.188;9.964;2022-11-03T10:13:55;14.25;;;6.47;;
29246;SDS011;16272;48.188;9.964;2022-11-03T10:16:22;14.80;;;6.90;;
29246;SDS011;16272;48.188;9.964;2022-11-03T10:18:49;14.23;;;6.82;;
29246;SDS011;16272;48.188;9.964;2022-11-03T10:21:34;15.00;;;7.10;;
29246;SDS011;16272;48.188;9.964;2022-11-03T10:24:00;15.82;;;7.30;;
29246;SDS011;16272;48.188;9.964;2022-11-03T10:26:25;16.77;;;7.07;;
29246;SDS011;16272;48.188;9.964;2022-11-03T10:28:57;16.03;;;6.90;;
29246;SDS011;16272;48.188;9.964;2022-11-03T10:33:57;17.15;;;7.63;;
29246;SDS011;16272;48.188;9.964;2022-11-03T10:36:24;16.00;;;7.33;;
29246;SDS011;16272;48.188;9.964;2022-11-03T10:38:51;23.35;;;8.90;;
29246;SDS011;16272;48.188;9.964;2022-11-03T10:41:18;18.87;;;8.67;;
29246;SDS011;16272;48.188;9.964;2022-11-03T10:46:35;17.55;;;8.60;;
29246;SDS011;16272;48.188;9.964;2022-11-03T10:51:26;18.77;;;8.60;;
29246;SDS011;16272;48.188;9.964;2022-11-03T10:53:53;22.02;;;7.53;;
29246;SDS011;16272;48.188;9.964;2022-11-03T10:56:19;18.33;;;7.77;;
29246;SDS011;16272;48.188;9.964;2022-11-03T10:58:44;20.88;;;8.23;;
29246;SDS011;16272;48.188;9.964;2022-11-03T11:01:10;19.57;;;8.53;;
29246;SDS011;16272;48.188;9.964;2022-11-03T11:03:37;17.20;;;7.77;;
29246;SDS011;16272;48.188;9.964;2022-11-03T11:06:14;17.35;;;7.30;;
29246;SDS011;16272;48.188;9.964;2022-11-03T11:08:42;16.85;;;7.45;;
29246;SDS011;16272;48.188;9.964;2022-11-03T11:11:07;15.37;;;6.60;;
29246;SDS011;16272;48.188;9.964;2022-11-03T11:13:32;13.97;;;6.87;;
29246;SDS011;16272;48.188;9.964;2022-11-03T11:15:58;17.60;;;7.43;;
29246;SDS011;16272;48.188;9.964;2022-11-03T11:20:57;16.33;;;7.47;;
29246;SDS011;16272;48.188;9.964;2022-11-03T11:26:10;15.60;;;7.18;;
29246;SDS011;16272;48.188;9.964;2022-11-03T11:28:39;18.97;;;7.60;;
29246;SDS011;16272;48.188;9.964;2022-11-03T11:33:46;16.95;;;7.75;;
29246;SDS011;16272;48.188;9.964;2022-11-03T11:36:19;16.43;;;7.13;;
29246;SDS011;16272;48.188;9.964;2022-11-03T11:41:19;16.48;;;8.35;;
29246;SDS011;16272;48.188;9.964;2022-11-03T11:43:45;15.47;;;7.00;;
29246;SDS011;16272;48.188;9.964;2022-11-03T11:49:00;14.63;;;6.67;;
29246;SDS011;16272;48.188;9.964;2022-11-03T11:51:39;16.15;;;7.50;;
29246;SDS011;16272;48.188;9.964;2022-11-03T11:54:05;16.53;;;7.30;;
29246;SDS011;16272;48.188;9.964;2022-11-03T11:56:32;15.65;;;7.10;;
29246;SDS011;16272;48.188;9.964;2022-11-03T11:58:58;16.52;;;8.00;;
29246;SDS011;16272;48.188;9.964;2022-11-03T12:04:04;17.67;;;7.75;;
29246;SDS011;16272;48.188;9.964;2022-11-03T12:06:36;15.43;;;7.93;;
29246;SDS011;16272;48.188;9.964;2022-11-03T12:09:03;17.23;;;7.90;;
29246;SDS011;16272;48.188;9.964;2022-11-03T12:11:47;16.45;;;7.90;;
29246;SDS011;16272;48.188;9.964;2022-11-03T12:16:45;16.42;;;7.88;;
29246;SDS011;16272;48.188;9.964;2022-11-03T12:22:07;17.27;;;8.20;;
29246;SDS011;16272;48.188;9.964;2022-11-03T12:24:34;16.13;;;8.23;;
29246;SDS011;16272;48.188;9.964;2022-11-03T12:27:02;14.85;;;7.18;;
29246;SDS011;16272;48.188;9.964;2022-11-03T12:29:41;14.13;;;6.70;;
29246;SDS011;16272;48.188;9.964;2022-11-03T12:32:07;14.37;;;7.17;;
29246;SDS011;16272;48.188;9.964;2022-11-03T12:34:32;15.40;;;7.13;;
29246;SDS011;16272;48.188;9.964;2022-11-03T12:36:57;14.73;;;7.43;;
29246;SDS011;16272;48.188;9.964;2022-11-03T12:39:23;14.97;;;7.27;;
29246;SDS011;16272;48.188;9.964;2022-11-03T12:41:48;16.47;;;7.53;;
29246;SDS011;16272;48.188;9.964;2022-11-03T12:44:13;16.13;;;7.13;;
29246;SDS011;16272;48.188;9.964;2022-11-03T12:46:39;15.83;;;7.53;;
29246;SDS011;16272;48.188;9.964;2022-11-03T12:49:04;17.73;;;8.47;;
29246;SDS011;16272;48.188;9.964;2022-11-03T12:51:29;14.33;;;6.77;;
29246;SDS011;16272;48.188;9.964;2022-11-03T12:53:54;16.37;;;8.13;;
29246;SDS011;16272;48.188;9.964;2022-11-03T12:56:20;16.63;;;8.03;;
29246;SDS011;16272;48.188;9.964;2022-11-03T12:58:45;15.65;;;7.55;;
29246;SDS011;16272;48.188;9.964;2022-11-03T13:01:10;15.90;;;7.37;;
29246;SDS011;16272;48.188;9.964;2022-11-03T13:03:36;16.10;;;7.73;;
29246;SDS011;16272;48.188;9.964;2022-11-03T13:06:02;15.60;;;8.10;;
29246;SDS011;16272;48.188;9.964;2022-11-03T13:08:29;14.27;;;7.15;;
29246;SDS011;16272;48.188;9.964;2022-11-03T13:10:55;17.45;;;7.93;;
29246;SDS011;16272;48.188;9.964;2022-11-03T13:13:20;16.60;;;8.53;;
29246;SDS011;16272;48.188;9.964;2022-11-03T13:15:46;20.83;;;8.70;;
29246;SDS011;16272;48.188;9.964;2022-11-03T13:18:11;20.33;;;9.30;;
29246;SDS011;16272;48.188;9.964;2022-11-03T13:20:36;21.43;;;9.60;;
29246;SDS011;16272;48.188;9.964;2022-11-03T13:23:02;19.53;;;8.73;;
29246;SDS011;16272;48.188;9.964;2022-11-03T13:25:28;22.42;;;9.35;;
29246;SDS011;16272;48.188;9.964;2022-11-03T13:27:54;23.23;;;9.35;;
29246;SDS011;16272;48.188;9.964;2022-11-03T13:30:20;21.03;;;9.30;;
29246;SDS011;16272;48.188;9.964;2022-11-03T13:32:46;21.30;;;9.65;;
29246;SDS011;16272;48.188;9.964;2022-11-03T13:35:12;23.97;;;9.47;;
29246;SDS011;16272;48.188;9.964;2022-11-03T13:37:37;21.57;;;8.27;;
29246;SDS011;16272;48.188;9.964;2022-11-03T13:40:03;18.87;;;8.37;;
29246;SDS011;16272;48.188;9.964;2022-11-03T13:42:29;19.92;;;8.73;;
29246;SDS011;16272;48.188;9.964;2022-11-03T13:44:54;19.73;;;8.13;;
29246;SDS011;16272;48.188;9.964;2022-11-03T13:47:20;18.58;;;8.48;;
29246;SDS011;16272;48.188;9.964;2022-11-03T13:49:46;21.50;;;9.27;;
29246;SDS011;16272;48.188;9.964;2022-11-03T13:52:11;22.27;;;9.30;;
29246;SDS011;16272;48.188;9.964;2022-11-03T13:54:36;19.13;;;8.43;;
29246;SDS011;16272;48.188;9.964;2022-11-03T13:57:02;18.23;;;8.23;;
29246;SDS011;16272;48.188;9.964;2022-11-03T13:59:28;18.20;;;8.47;;
29246;SDS011;16272;48.188;9.964;2022-11-03T14:01:53;17.47;;;8.73;;
29246;SDS011;16272;48.188;9.964;2022-11-03T14:04:18;17.83;;;8.73;;
29246;SDS011;16272;48.188;9.964;2022-11-03T14:06:44;20.50;;;8.63;;
29246;SDS011;16272;48.188;9.964;2022-11-03T14:09:09;20.57;;;8.67;;
29246;SDS011;16272;48.188;9.964;2022-11-03T14:11:34;17.20;;;8.00;;
29246;SDS011;16272;48.188;9.964;2022-11-03T14:14:18;18.38;;;8.70;;
29246;SDS011;16272;48.188;9.964;2022-11-03T14:16:43;30.37;;;12.60;;
29246;SDS011;16272;48.188;9.964;2022-11-03T14:19:09;25.07;;;11.30;;
29246;SDS011;16272;48.188;9.964;2022-11-03T14:21:34;26.67;;;10.77;;
29246;SDS011;16272;48.188;9.964;2022-11-03T14:24:01;25.67;;;10.63;;
29246;SDS011;16272;48.188;9.964;2022-11-03T14:26:28;21.02;;;9.40;;
29246;SDS011;16272;48.188;9.964;2022-11-03T14:28:54;21.03;;;9.03;;
29246;SDS011;16272;48.188;9.964;2022-11-03T14:31:19;19.37;;;8.47;;
29246;SDS011;16272;48.188;9.964;2022-11-03T14:33:44;18.07;;;8.50;;
29246;SDS011;16272;48.188;9.964;2022-11-03T14:36:09;17.60;;;8.50;;
29246;SDS011;16272;48.188;9.964;2022-11-03T14:38:35;19.10;;;8.30;;
29246;SDS011;16272;48.188;9.964;2022-11-03T14:41:00;20.13;;;8.83;;
29246;SDS011;16272;48.188;9.964;2022-11-03T14:43:44;20.70;;;10.20;;
29246;SDS011;16272;48.188;9.964;2022-11-03T14:46:09;20.63;;;10.10;;
29246;SDS011;16272;48.188;9.964;2022-11-03T14:48:35;19.50;;;9.98;;
29246;SDS011;16272;48.188;9.964;2022-11-03T14:51:00;21.43;;;9.77;;
29246;SDS011;16272;48.188;9.964;2022-11-03T14:53:25;22.60;;;9.40;;
29246;SDS011;16272;48.188;9.964;2022-11-03T14:55:51;19.50;;;9.60;;
29246;SDS011;16272;48.188;9.964;2022-11-03T14:58:16;19.33;;;9.37;;
29246;SDS011;16272;48.188;9.964;2022-11-03T15:00:41;21.83;;;10.03;;
29246;SDS011;16272;48.188;9.964;2022-11-03T15:03:07;23.10;;;11.27;;
29246;SDS011;16272;48.188;9.964;2022-11-03T15:05:32;19.67;;;10.30;;
29246;SDS011;16272;48.188;9.964;2022-11-03T15:08:10;21.33;;;10.00;;
29246;SDS011;16272;48.188;9.964;2022-11-03T15:10:37;21.05;;;9.00;;
29246;SDS011;16272;48.188;9.964;2022-11-03T15:13:02;21.40;;;9.43;;
29246;SDS011;16272;48.188;9.964;2022-11-03T15:15:28;19.00;;;8.13;;
29246;SDS011;16272;48.188;9.964;2022-11-03T15:17:53;18.27;;;10.02;;
29246;SDS011;16272;48.188;9.964;2022-11-03T15:20:18;18.07;;;9.00;;
29246;SDS011;16272;48.188;9.964;2022-11-03T15:22:44;19.27;;;8.97;;
29246;SDS011;16272;48.188;9.964;2022-11-03T15:25:10;19.97;;;8.90;;
29246;SDS011;16272;48.188;9.964;2022-11-03T15:27:35;22.08;;;9.98;;
29246;SDS011;16272;48.188;9.964;2022-11-03T15:30:02;23.42;;;9.70;;
29246;SDS011;16272;48.188;9.964;2022-11-03T15:32:32;23.42;;;10.73;;
29246;SDS011;16272;48.188;9.964;2022-11-03T15:34:57;22.70;;;10.20;;
29246;SDS011;16272;48.188;9.964;2022-11-03T15:37:23;21.10;;;9.95;;
29246;SDS011;16272;48.188;9.964;2022-11-03T15:39:48;21.57;;;10.20;;